createdAt,value
2022-10-15T00:02:23.292Z,85.72
2022-10-15T00:05:10.288Z,85.48
2022-10-15T00:07:57.252Z,85.63
2022-10-15T00:10:44.233Z,85.60
2022-10-15T00:13:31.329Z,85.33
2022-10-15T00:16:18.598Z,84.78
2022-10-15T00:19:05.975Z,85.57
2022-10-15T00:21:52.897Z,84.69
2022-10-15T00:24:39.855Z,84.88
2022-10-15T00:27:26.671Z,84.71
2022-10-15T00:30:13.775Z,85.68
2022-10-15T00:33:00.751Z,84.68
2022-10-15T00:35:48.077Z,85.34
2022-10-15T00:38:35.520Z,85.59
2022-10-15T00:41:23.726Z,84.84
2022-10-15T00:44:21.831Z,84.51
2022-10-15T00:47:12.497Z,85.60
2022-10-15T00:50:04.588Z,85.39
2022-10-15T00:53:17.643Z,85.52
2022-10-15T00:56:04.940Z,84.59
2022-10-15T00:58:52.919Z,84.72
2022-10-15T01:01:40.025Z,85.08
2022-10-15T01:04:28.017Z,84.42
2022-10-15T01:10:07.069Z,85.26
2022-10-15T01:13:30.027Z,85.65
2022-10-15T01:16:38.490Z,84.56
2022-10-15T01:19:59.348Z,85.08
2022-10-15T01:23:31.112Z,84.57
2022-10-15T01:26:46.414Z,84.53
2022-10-15T01:30:12.254Z,84.21
2022-10-15T01:33:08.557Z,85.27
2022-10-15T01:35:55.457Z,84.95
2022-10-15T01:38:51.077Z,85.04
2022-10-15T01:42:02.691Z,84.47
2022-10-15T01:45:00.262Z,84.64
2022-10-15T01:48:07.276Z,85.06
2022-10-15T01:50:57.816Z,84.65
2022-10-15T01:53:46.960Z,84.47
2022-10-15T01:56:39.255Z,84.70
2022-10-15T01:59:29.300Z,85.29
2022-10-15T02:02:16.376Z,85.26
2022-10-15T02:05:03.664Z,84.28
2022-10-15T02:08:15.232Z,85.13
2022-10-15T02:11:24.760Z,85.50
2022-10-15T02:14:29.628Z,84.36
2022-10-15T02:17:32.260Z,85.29
2022-10-15T02:20:31.360Z,84.67
2022-10-15T02:23:40.453Z,84.61
2022-10-15T02:26:30.881Z,85.41
2022-10-15T02:29:20.362Z,84.96
2022-10-15T02:32:09.804Z,85.26
2022-10-15T02:34:57.391Z,85.90
2022-10-15T02:37:47.696Z,84.77
2022-10-15T02:40:41.991Z,84.99
2022-10-15T02:43:31.072Z,84.86
2022-10-15T02:46:18.218Z,85.96
2022-10-15T02:49:05.072Z,85.04
2022-10-15T02:51:54.009Z,86.03
2022-10-15T02:54:41.004Z,84.93
2022-10-15T02:57:28.122Z,85.84
2022-10-15T03:00:15.115Z,85.25
2022-10-15T03:03:02.581Z,85.50
2022-10-15T03:05:49.885Z,85.63
2022-10-15T03:08:36.895Z,84.96
2022-10-15T03:11:24.628Z,85.69
2022-10-15T03:14:11.965Z,85.70
2022-10-15T03:16:58.887Z,85.93
2022-10-15T03:19:46.312Z,85.06
2022-10-15T03:22:33.344Z,85.17
2022-10-15T03:25:20.277Z,85.75
2022-10-15T03:28:10.645Z,85.11
2022-10-15T03:31:02.926Z,85.17
2022-10-15T03:33:50.586Z,85.08
2022-10-15T03:36:40.942Z,85.83
2022-10-15T03:39:33.824Z,85.75
2022-10-15T03:42:24.280Z,84.82
2022-10-15T03:45:11.696Z,85.66
2022-10-15T03:47:58.969Z,85.49
2022-10-15T03:50:50.065Z,84.57
2022-10-15T03:53:37.087Z,84.89
2022-10-15T03:56:25.884Z,84.62
2022-10-15T03:59:18.803Z,84.68
2022-10-15T04:02:15.092Z,85.03
2022-10-15T04:05:02.423Z,85.40
2022-10-15T04:07:49.444Z,84.90
2022-10-15T04:10:40.497Z,84.68
2022-10-15T04:13:27.733Z,84.83
2022-10-15T04:16:15.817Z,85.35
2022-10-15T04:19:05.085Z,85.81
2022-10-15T04:21:54.604Z,85.38
2022-10-15T04:24:50.943Z,86.02
2022-10-15T04:27:46.611Z,85.83
2022-10-15T04:30:37.154Z,85.41
2022-10-15T04:33:27.360Z,84.93
2022-10-15T04:36:25.657Z,85.14
2022-10-15T04:39:20.799Z,85.38
2022-10-15T04:42:07.598Z,84.85
2022-10-15T04:44:55.487Z,85.81
2022-10-15T04:47:42.389Z,84.85
2022-10-15T04:50:32.940Z,84.73
2022-10-15T04:53:52.183Z,84.99
2022-10-15T04:56:42.547Z,85.50
2022-10-15T04:59:29.456Z,84.46
2022-10-15T05:02:36.628Z,84.86
2022-10-15T05:05:38.357Z,85.30
2022-10-15T05:08:25.782Z,85.67
2022-10-15T05:11:38.611Z,85.02
2022-10-15T05:14:31.684Z,84.68
2022-10-15T05:17:37.424Z,84.30
2022-10-15T05:20:24.911Z,85.19
2022-10-15T05:23:11.816Z,85.59
2022-10-15T05:25:59.031Z,85.29
2022-10-15T05:28:46.199Z,85.02
2022-10-15T05:31:45.140Z,84.91
2022-10-15T05:34:38.620Z,85.02
2022-10-15T05:37:31.832Z,84.79
2022-10-15T05:40:21.891Z,85.06
2022-10-15T05:43:24.755Z,85.16
2022-10-15T05:46:14.790Z,84.67
2022-10-15T05:49:02.475Z,85.20
2022-10-15T05:55:06.565Z,84.54
2022-10-15T05:57:53.565Z,84.62
2022-10-15T06:00:40.504Z,84.50
2022-10-15T06:03:32.324Z,84.74
2022-10-15T06:06:19.285Z,84.84
2022-10-15T06:09:08.366Z,85.50
2022-10-15T06:11:56.644Z,84.51
2022-10-15T06:14:45.338Z,85.64
2022-10-15T06:17:32.286Z,85.36
2022-10-15T06:20:19.209Z,84.92
2022-10-15T06:23:06.154Z,84.96
2022-10-15T06:25:53.769Z,84.96
2022-10-15T06:28:40.772Z,85.20
2022-10-15T06:31:28.302Z,85.40
2022-10-15T06:34:15.248Z,85.39
2022-10-15T06:37:02.149Z,85.06
2022-10-15T06:39:49.086Z,85.76
2022-10-15T06:42:36.013Z,84.78
2022-10-15T06:45:23.130Z,85.23
2022-10-15T06:48:10.084Z,84.84
2022-10-15T06:50:58.861Z,85.54
2022-10-15T06:53:45.767Z,85.31
2022-10-15T06:56:32.654Z,85.42
2022-10-15T06:59:19.582Z,84.95
2022-10-15T07:02:06.463Z,85.69
2022-10-15T07:04:53.363Z,85.02
2022-10-15T07:07:40.561Z,84.77
2022-10-15T07:10:27.889Z,85.18
2022-10-15T07:13:15.060Z,84.70
2022-10-15T07:16:02.005Z,85.34
2022-10-15T07:18:49.715Z,84.95
2022-10-15T07:21:36.653Z,84.48
2022-10-15T07:24:23.891Z,84.69
2022-10-15T07:27:18.804Z,84.39
2022-10-15T07:30:06.664Z,85.31
2022-10-15T07:32:54.420Z,84.47
2022-10-15T07:35:41.444Z,84.95
2022-10-15T07:38:28.577Z,84.76
2022-10-15T07:41:18.877Z,84.06
2022-10-15T07:44:05.765Z,84.18
2022-10-15T07:46:52.746Z,84.27
2022-10-15T07:49:39.757Z,84.75
2022-10-15T07:52:27.245Z,84.88
2022-10-15T07:55:14.368Z,84.42
2022-10-15T07:58:01.385Z,84.65
2022-10-15T08:00:48.321Z,83.71
2022-10-15T08:03:35.192Z,84.17
2022-10-15T08:06:23.939Z,83.88
2022-10-15T08:09:10.997Z,84.88
2022-10-15T08:11:58.104Z,84.69
2022-10-15T08:14:45.415Z,83.44
2022-10-15T08:17:32.409Z,84.17
2022-10-15T08:20:19.488Z,84.14
2022-10-15T08:23:06.620Z,83.73
2022-10-15T08:25:53.548Z,84.78
2022-10-15T08:28:40.624Z,84.81
2022-10-15T08:31:27.657Z,83.92
2022-10-15T08:34:14.544Z,84.03
2022-10-15T08:37:01.405Z,84.72
2022-10-15T08:39:48.411Z,83.78
2022-10-15T08:42:43.089Z,83.55
2022-10-15T08:46:01.803Z,83.85
2022-10-15T08:48:52.732Z,84.28
2022-10-15T08:51:58.257Z,84.61
2022-10-15T08:54:45.427Z,84.14
2022-10-15T08:58:19.050Z,84.30
2022-10-15T09:01:15.771Z,83.76
2022-10-15T09:04:16.386Z,84.54
2022-10-15T09:07:03.832Z,83.39
2022-10-15T09:10:12.371Z,83.98
2022-10-15T09:13:18.086Z,83.65
2022-10-15T09:16:15.934Z,83.48
2022-10-15T09:19:07.277Z,82.98
2022-10-15T09:21:56.097Z,83.15
2022-10-15T09:24:48.659Z,83.06
2022-10-15T09:27:59.689Z,82.47
2022-10-15T09:31:08.840Z,82.05
2022-10-15T09:34:02.512Z,81.90
2022-10-15T09:36:59.027Z,82.62
2022-10-15T09:39:51.834Z,82.12
2022-10-15T09:42:48.677Z,82.00
2022-10-15T09:45:36.729Z,81.13
2022-10-15T09:48:35.733Z,81.55
2022-10-15T09:51:32.479Z,81.97
2022-10-15T09:54:29.927Z,81.90
2022-10-15T09:57:17.693Z,82.16
2022-10-15T10:00:14.606Z,81.79
2022-10-15T10:03:02.807Z,81.19
2022-10-15T10:05:52.309Z,81.69
2022-10-15T10:08:41.325Z,82.05
2022-10-15T10:11:31.497Z,81.88
2022-10-15T10:14:20.720Z,82.62
2022-10-15T10:17:48.063Z,82.48
2022-10-15T10:20:39.568Z,82.15
2022-10-15T10:23:53.631Z,82.44
2022-10-15T10:26:40.761Z,82.56
2022-10-15T10:29:35.411Z,82.65
2022-10-15T10:32:38.798Z,81.85
2022-10-15T10:35:26.271Z,82.38
2022-10-15T10:38:13.471Z,82.84
2022-10-15T10:41:00.896Z,82.45
2022-10-15T10:50:22.606Z,82.98
2022-10-15T10:53:10.267Z,82.58
2022-10-15T10:55:59.728Z,82.86
2022-10-15T10:58:49.297Z,82.86
2022-10-15T11:01:36.395Z,83.19
2022-10-15T11:04:24.866Z,83.14
2022-10-15T11:07:43.223Z,82.36
2022-10-15T11:10:23.968Z,83.27
2022-10-15T11:13:45.188Z,83.05
2022-10-15T11:16:55.411Z,83.05
2022-10-15T11:20:12.208Z,83.15
2022-10-15T11:23:42.948Z,82.88
2022-10-15T11:26:58.956Z,83.07
2022-10-15T11:30:24.992Z,82.57
2022-10-15T11:33:38.704Z,82.71
2022-10-15T11:36:46.663Z,83.69
2022-10-15T11:39:39.400Z,83.04
2022-10-15T11:42:39.592Z,83.10
2022-10-15T11:45:50.244Z,83.23
2022-10-15T11:49:14.003Z,82.99
2022-10-15T11:52:10.396Z,82.60
2022-10-15T11:55:02.470Z,83.02
2022-10-15T11:57:52.700Z,83.47
2022-10-15T12:00:47.900Z,83.86
2022-10-15T12:03:39.448Z,82.85
2022-10-15T12:06:36.399Z,83.70
2022-10-15T12:09:25.239Z,83.36
2022-10-15T12:12:20.045Z,83.53
2022-10-15T12:15:34.050Z,83.53
2022-10-15T12:18:52.065Z,82.99
2022-10-15T12:21:56.066Z,82.93
2022-10-15T12:24:58.784Z,82.64
2022-10-15T12:27:57.322Z,82.43
2022-10-15T12:30:47.350Z,82.96
2022-10-15T12:33:49.443Z,82.88
2022-10-15T12:36:19.333Z,82.61
2022-10-15T12:39:27.810Z,82.78
2022-10-15T12:42:24.498Z,82.88
2022-10-15T12:45:11.814Z,83.07
2022-10-15T12:48:25.768Z,82.78
2022-10-15T12:51:41.517Z,83.20
2022-10-15T12:55:02.705Z,83.23
2022-10-15T12:57:36.173Z,83.29
2022-10-15T13:00:43.343Z,83.24
2022-10-15T13:03:36.264Z,82.77
2022-10-15T13:06:41.243Z,83.09
2022-10-15T13:09:31.238Z,83.00
2022-10-15T13:12:20.661Z,83.29
2022-10-15T13:15:19.135Z,82.85
2022-10-15T13:18:06.171Z,82.45
2022-10-15T13:20:57.547Z,83.09
2022-10-15T13:23:46.083Z,82.17
2022-10-15T13:26:43.548Z,82.20
2022-10-15T13:29:39.479Z,83.21
2022-10-15T13:32:34.140Z,83.07
2022-10-15T13:35:23.800Z,82.56
2022-10-15T13:38:10.764Z,82.23
2022-10-15T13:40:57.876Z,82.97
2022-10-15T13:43:46.773Z,82.83
2022-10-15T13:46:35.604Z,82.27
2022-10-15T13:49:29.475Z,82.41
2022-10-15T13:52:16.831Z,82.84
2022-10-15T13:55:06.935Z,83.32
2022-10-15T13:57:53.909Z,83.03
2022-10-15T14:00:49.653Z,82.80
2022-10-15T14:03:42.956Z,82.61
2022-10-15T14:06:38.999Z,82.56
2022-10-15T14:09:48.117Z,83.25
2022-10-15T14:12:35.177Z,82.62
2022-10-15T14:18:59.135Z,83.23
2022-10-15T14:21:49.715Z,83.16
2022-10-15T14:24:40.498Z,83.45
2022-10-15T14:27:33.562Z,83.55
2022-10-15T14:30:21.027Z,83.56
2022-10-15T14:33:10.049Z,84.10
2022-10-15T14:35:58.053Z,83.74
2022-10-15T14:38:46.000Z,83.61
2022-10-15T14:41:53.048Z,83.98
2022-10-15T14:44:40.162Z,84.47
2022-10-15T14:47:38.747Z,84.07
2022-10-15T14:50:26.884Z,84.44
2022-10-15T14:53:15.081Z,84.26
2022-10-15T14:56:04.426Z,84.70
2022-10-15T14:58:51.297Z,84.54
2022-10-15T15:01:40.074Z,84.48
2022-10-15T15:04:53.029Z,85.29
2022-10-15T15:07:41.204Z,84.79
2022-10-15T15:10:29.337Z,85.00
2022-10-15T15:13:17.353Z,84.50
2022-10-15T15:16:04.468Z,85.11
2022-10-15T15:18:51.568Z,85.25
2022-10-15T15:21:42.279Z,85.34
2022-10-15T15:24:09.804Z,85.19
2022-10-15T15:26:56.730Z,85.83
2022-10-15T15:29:44.672Z,85.15
2022-10-15T15:32:32.452Z,85.31
2022-10-15T15:35:20.507Z,85.37
2022-10-15T15:38:11.561Z,85.88
2022-10-15T15:40:58.372Z,85.51
2022-10-15T15:43:45.199Z,86.12
2022-10-15T15:46:33.155Z,85.68
2022-10-15T15:49:20.048Z,86.31
2022-10-15T15:52:07.071Z,86.46
2022-10-15T15:54:53.942Z,86.05
2022-10-15T15:57:41.120Z,86.94
2022-10-15T16:00:30.021Z,86.60
2022-10-15T16:03:17.139Z,86.72
2022-10-15T16:05:44.152Z,86.25
2022-10-15T16:08:31.730Z,86.02
2022-10-15T16:11:23.973Z,86.95
2022-10-15T16:14:11.709Z,86.33
2022-10-15T16:16:58.664Z,86.44
2022-10-15T16:19:45.757Z,86.53
2022-10-15T16:22:32.807Z,86.66
2022-10-15T16:25:19.983Z,86.93
2022-10-15T16:28:07.581Z,87.17
2022-10-15T16:30:54.867Z,87.15
2022-10-15T16:33:41.815Z,87.33
2022-10-15T16:36:28.840Z,87.59
2022-10-15T16:39:15.744Z,87.08
2022-10-15T16:42:02.998Z,87.99
2022-10-15T16:44:50.186Z,87.65
2022-10-15T16:47:33.101Z,87.86
2022-10-15T16:50:19.940Z,87.52
2022-10-15T16:53:06.921Z,87.79
2022-10-15T16:55:53.975Z,87.76
2022-10-15T16:58:41.832Z,87.60
2022-10-15T17:01:32.511Z,88.11
2022-10-15T17:04:20.220Z,87.26
2022-10-15T17:07:07.133Z,88.10
2022-10-15T17:09:54.167Z,87.14
2022-10-15T17:12:41.372Z,87.71
2022-10-15T17:15:09.079Z,87.89
2022-10-15T17:17:56.016Z,87.44
2022-10-15T17:20:42.998Z,87.81
2022-10-15T17:23:29.926Z,87.77
2022-10-15T17:26:16.965Z,87.61
2022-10-15T17:29:05.245Z,87.66
2022-10-15T17:31:52.469Z,87.79
2022-10-15T17:34:39.555Z,87.55
2022-10-15T17:37:26.688Z,87.91
2022-10-15T17:40:13.757Z,87.23
2022-10-15T17:43:00.674Z,87.77
2022-10-15T17:45:47.599Z,87.98
2022-10-15T17:48:34.692Z,87.78
2022-10-15T17:51:22.783Z,87.37
2022-10-15T17:54:14.468Z,87.16
2022-10-15T17:57:02.537Z,87.91
2022-10-15T17:59:51.192Z,87.88
2022-10-15T18:02:38.524Z,87.21
2022-10-15T18:05:25.657Z,87.45
2022-10-15T18:08:12.532Z,87.43
2022-10-15T18:10:59.731Z,87.16
2022-10-15T18:13:48.572Z,87.77
2022-10-15T18:16:35.463Z,87.57
2022-10-15T18:19:22.527Z,87.54
2022-10-15T18:22:09.417Z,87.10
2022-10-15T18:24:56.590Z,87.43
2022-10-15T18:27:43.999Z,87.11
2022-10-15T18:30:34.193Z,87.33
2022-10-15T18:33:21.380Z,86.81
2022-10-15T18:36:08.355Z,87.68
2022-10-15T18:38:55.510Z,87.40
2022-10-15T18:41:51.025Z,86.96
2022-10-15T18:44:38.857Z,86.81
2022-10-15T18:47:25.765Z,86.20
2022-10-15T18:50:12.713Z,87.00
2022-10-15T18:52:59.779Z,86.47
2022-10-15T18:55:46.731Z,87.00
2022-10-15T18:58:33.587Z,86.36
2022-10-15T19:01:43.381Z,86.10
2022-10-15T19:04:33.281Z,86.08
2022-10-15T19:07:20.309Z,86.83
2022-10-15T19:10:07.497Z,86.35
2022-10-15T19:12:54.341Z,87.13
2022-10-15T19:15:42.388Z,86.33
2022-10-15T19:18:29.220Z,85.73
2022-10-15T19:21:16.413Z,85.86
2022-10-15T19:24:03.326Z,86.36
2022-10-15T19:26:50.247Z,86.56
2022-10-15T19:29:37.304Z,86.79
2022-10-15T19:32:24.350Z,85.95
2022-10-15T19:34:51.452Z,86.00
2022-10-15T19:37:38.367Z,85.87
2022-10-15T19:40:25.787Z,85.98
2022-10-15T19:43:13.039Z,85.15
2022-10-15T19:46:04.677Z,86.06
2022-10-15T19:48:53.597Z,85.65
2022-10-15T19:51:41.520Z,85.11
2022-10-15T19:54:28.786Z,85.50
2022-10-15T19:57:15.653Z,85.06
2022-10-15T20:00:02.587Z,84.85
2022-10-15T20:02:59.409Z,85.34
2022-10-15T20:05:46.495Z,85.81
2022-10-15T20:08:34.449Z,85.41
2022-10-15T20:11:21.360Z,85.30
2022-10-15T20:14:08.234Z,85.15
2022-10-15T20:16:55.760Z,84.12
2022-10-15T20:22:44.993Z,85.00
2022-10-15T20:25:31.914Z,84.78
2022-10-15T20:28:19.587Z,84.76
2022-10-15T20:31:06.806Z,84.07
2022-10-15T20:33:53.864Z,84.64
2022-10-15T20:36:40.879Z,84.66
2022-10-15T20:39:28.233Z,84.25
2022-10-15T20:42:15.217Z,84.45
2022-10-15T20:45:02.111Z,84.05
2022-10-15T20:47:49.056Z,83.95
2022-10-15T20:50:41.182Z,83.53
